Het weer levert geen direct gevaar op.    Er zijn geen waarschuwingen afgegeven.


Onweer radar Meer informatie blitzortung!


Regen radar Meer informatie rain snow radar


Bezoek onze andere website:

Template documentation
and downloads

And another site

Forum Leuven-template

EUWEATHER.EU

Verwachtingen Meteociel


U vindt ons ook hier:

Het Weer Aktueel

UK Metoffice

European Weather Network

WeatherCloud

Weather Underground

Benelux Weer Netwerk

AWEKAS

WeatherlinkIP

HAMweather, WeatherForYou, PWS Weather

Wetterpage 24

Wetter.com



METAR rapporten vliegvelden

   
EBAW - Antwerp
Gewijzigd: 17-10-2018 14:50
Gedeeltelijk bewolkt  
Gedeeltelijk bewolkt  
   Wind: WZW 7.4 km/h
Wind: WZW 7.4 km/h
Temperatuur: 19°C
Dauwpunt: 12°C
Vochtigheid: 64%
Barometer: 1019 hPa
Bewolking: Gedeeltelijk bewolkt
Zicht: meer dan 10 km
Bewolking: Gedeeltelijk bewolkt 2500 ft
EBAW 171250Z 25004KT 230V290 9999 SCT025 19/12 Q1019 NOSIG
EBLG - Li├Ęge
Gewijzigd: 17-10-2018 14:50
Gedeeltelijk bewolkt  
Gedeeltelijk bewolkt  
   Wind: NNW 7.4 km/h
Wind: NNW 7.4 km/h
Temperatuur: 19°C
Dauwpunt: 12°C
Vochtigheid: 64%
Barometer: 1019 hPa
Bewolking: Gedeeltelijk bewolkt
Zicht: 8 km
Bewolking: Gedeeltelijk bewolkt
EBLG 171250Z 33004KT 270V360 8000 NSC 19/12 Q1019 NOSIG
EBCV - Mons/Bergen
Gewijzigd: 17-10-2018 14:50
Gedeeltelijk bewolkt  
Gedeeltelijk bewolkt  
   Wind: NW 5.6 km/h
Wind: NW 5.6 km/h
Temperatuur: 19°C
Dauwpunt: 12°C
Vochtigheid: 64%
Barometer: 1019 hPa
Bewolking: Gedeeltelijk bewolkt
Zicht: 7 km
Bewolking: Gedeeltelijk bewolkt 2800 ft
EBCV 171250Z AUTO 31003KT 7000 SCT028/// 19/12 Q1019 WHT
EHBK - Maastricht
Gewijzigd: 17-10-2018 14:55
Helder  
Helder  
   Wind: varieert 3.7 km/h
Wind: varieert 3.7 km/h
Temperatuur: 20°C
Dauwpunt: 12°C
Vochtigheid: 60%
Barometer: 1018 hPa
Bewolking: Helder
Zicht: 9 km
Bewolking: Helder
EHBK 171255Z AUTO VRB02KT 9000 NCD 20/12 Q1018 NOSIG
ELLX - Luxemburg
Gewijzigd: 17-10-2018 14:50
Helder  
Helder  
   Wind: ONO 9.3 km/h
Wind: ONO 9.3 km/h
Temperatuur: 22°C
Dauwpunt: 9°C
Vochtigheid: 44%
Barometer: 1018 hPa
Zicht: meer dan 10 km
Bewolking: Helder
ELLX 171250Z 06005KT 360V160 CAVOK 22/09 Q1018 NOSIG
EBOS - Oostende
Gewijzigd: 17-10-2018 14:50
Licht bewolkt  
Licht bewolkt  
   Wind: NNW 7.4 km/h
Wind: NNW 7.4 km/h
Temperatuur: 17°C
Dauwpunt: 11°C
Vochtigheid: 68%
Barometer: 1020 hPa
Bewolking: Licht bewolkt
Zicht: meer dan 10 km
Bewolking: Licht bewolkt 3000 ft
EBOS 171250Z 33004KT 290V020 9999 FEW030 17/11 Q1020 NOSIG

Script ontwikkeld door  Saratoga-weather.org Aangepast voor de template door  Weerstation Leuven

Apparatuur in gebruik:

Weerstation
Davis VP2

Weerprogramma
Meteobridge

Weercomputer
Asus WL -330N3G

Webleverancier
Onecom

Davis VP2

Meteobridge

Asus WL -330N3G

Onecom